Decoded Metar for KSUS (ST. LOUIS/SPIRIT in MO, USA) (IATA:SUS) | Meteo·Mobile Aviation Weather
aviador You're here:

KSUS Decoded Metar

ST. LOUIS/SPIRIT in MO, USA
Report Time2018-12-16 10:54:00
UTC Time2018-12-16 11:44:29
Flight Rules vfr VFR
WindCalm
Visibility9999 m
Phenomena:N/A
Clouds:N/A
CeilingNone
Temp-2°C (ISA -16)
Dew Point-2°C (100% RH)
AAT-4.3°C
QNH1023 hPa
Density Alt-1,775 ft
Elevation463 ft
Report Wrong Elevation
Raw Report
KSUS 161054Z AUTO 00000KT 10SM CLR M02/M02 A3020 RMK AO2 SLP234
T10171022=

Extra information for KSUS:More info

Metar Taf Metar & Taf Last 4 Metars F.Rules Stats Wind Profile Meteogram Temp Stats Airport Information Weather charts Add Link Nearby VenuesMetar ALERT Operation Metar Decoded Social comments

AIRNAV info for KSUS